• Join FlightAware (Why Join?)
  • Login
  • US Flag 
03:36AM EDT


 

Airport Tracker/Info


-or-


 

Live Flight TrackerFlight Track Log ✈ TAM3917 ✈ 04-Nov-2013 ✈ SBRJ / SDU - SBSP / CGH

Flight Track Log - Related Links

Times and Time Zones

All times are in EST time to prevent confusion due to time zone crossing. See the TAM3917 flight status page for this flight to view local times or setup timezone preferences in your user account.

Time Position Orientation Groundspeed Altitude Reporting Facility
EST Latitude Longitude Course Direction KTS MPH feet Rate Location/Type
08:04AM -22.9000 -43.1630 129° Southeast 151 174 500  Level FlightAware
08:05AM -22.8850 -43.1470 45° Northeast 170 196 2,100 2,340 Climbing FlightAware
08:06AM -22.9340 -43.1200 153° Southeast 239 275 4,200 2,280 Climbing FlightAware
08:06AM -22.9770 -43.1230 184° South 277 319 5,800 3,540 Climbing FlightAware
08:07AM -23.0370 -43.1390 194° South 274 315 9,200 3,480 Climbing FlightAware
08:08AM -23.0770 -43.1660 212° Southwest 306 352 10,700 1,980 Climbing FlightAware
08:08AM -23.1070 -43.2150 236° Southwest 347 399 11,600 2,100 Climbing FlightAware
08:09AM -23.1430 -43.2750 237° Southwest 362 417 13,400 2,460 Climbing FlightAware
08:10AM -23.1820 -43.3460 239° Southwest 381 438 15,100 2,400 Climbing FlightAware
08:11AM -23.2040 -43.4220 253° West 385 443 16,900 1,560 Climbing FlightAware
08:11AM -23.2210 -43.4780 252° West 386 444 17,100 1,920 Climbing FlightAware
08:12AM -23.2460 -43.5670 253° West 414 476 19,400 2,400 Climbing FlightAware
08:13AM -23.2700 -43.6500 253° West 431 496 20,400 2,640 Climbing FlightAware
08:13AM -23.2890 -43.7160 253° West 402 463 22,700 2,700 Climbing FlightAware
08:14AM -23.3160 -43.8100 253° West 410 472 24,100 2,040 Climbing FlightAware
08:15AM -23.3540 -43.9430 253° West 402 463 26,700 1,980 Climbing FlightAware
08:16AM -23.3740 -44.0180 254° West 406 467 27,800 1,080 Climbing FlightAware
08:16AM -23.3880 -44.0850 257° West 393 452 28,000 120 Climbing FlightAware
08:17AM -23.4030 -44.1520 256° West 375 432 28,000  Level FlightAware
08:18AM -23.4290 -44.2770 257° West 376 433 28,000  Level FlightAware
08:18AM -23.4420 -44.3370 257° West 378 435 28,000  Level FlightAware
08:19AM -23.4590 -44.4190 257° West 379 436 28,000  Level FlightAware
08:20AM -23.4720 -44.4760 256° West 379 436 28,000  Level FlightAware
08:21AM -23.4840 -44.5330 257° West 379 436 28,000  Level FlightAware
08:22AM -23.5050 -44.6320 257° West 379 436 28,000  Level FlightAware
08:22AM -23.5210 -44.7080 257° West 379 436 28,000  Level FlightAware
08:23AM -23.5250 -44.7270 257° West 379 436 28,000  Level FlightAware
08:26AM -23.5415 -45.0118 266° West  Level Estimated
08:26AM -23.6050 -45.1120 266° West 371 427 28,000  Level FlightAware
08:26AM -23.6180 -45.1770 258° West 370 426 28,000  Level FlightAware
08:27AM -23.6310 -45.2360 256° West 369 425 28,000  Level FlightAware
08:27AM -23.6470 -45.3150 258° West 369 425 28,000  Level FlightAware
08:28AM -23.6590 -45.3730 257° West 371 427 28,000 -120 Level FlightAware
08:29AM -23.6770 -45.4600 257° West 369 425 27,900 -1,140 Descending FlightAware
08:29AM -23.6940 -45.5460 258° West 370 426 26,300 -2,160 Descending FlightAware
08:30AM -23.7080 -45.6120 257° West 373 429 25,000 -2,220 Descending FlightAware
08:31AM -23.7200 -45.6750 258° West 378 435 23,600 -1,740 Descending FlightAware
08:31AM -23.7350 -45.7480 257° West 358 412 22,800 -1,080 Descending FlightAware
08:32AM -23.7530 -45.8330 257° West 329 379 22,100 -960 Descending FlightAware
08:33AM -23.7660 -45.9000 258° West 316 364 21,400 -1,200 Descending FlightAware
08:34AM -23.7940 -45.9650 245° Southwest 309 356 20,400 -1,440 Descending FlightAware
08:34AM -23.8140 -46.0160 247° West 304 350 19,500 -1,440 Descending FlightAware
08:35AM -23.8230 -46.0750 261° West 300 345 18,600 -1,620 Descending FlightAware
08:36AM -23.8320 -46.1380 261° West 307 353 17,300 -1,680 Descending FlightAware
08:36AM -23.8390 -46.1840 261° West 305 351 16,600 -1,500 Descending FlightAware
08:37AM -23.8480 -46.2410 260° West 308 354 15,600 -1,260 Descending FlightAware
08:37AM -23.8560 -46.2950 261° West 293 337 15,100 -1,380 Descending FlightAware
08:38AM -23.8630 -46.3420 261° West 287 330 14,100 -1,800 Descending FlightAware
08:38AM -23.8680 -46.3810 262° West 280 322 13,300 -1,680 Descending FlightAware
08:39AM -23.8330 -46.4590 296° West 288 331 11,700 -1,380 Descending FlightAware
08:40AM -23.7930 -46.5360 300° West 270 311 10,600 -1,080 Descending FlightAware
08:41AM -23.7710 -46.5780 300° West 260 299 10,000 -1,200 Descending FlightAware
08:42AM -23.7450 -46.6280 300° West 257 296 9,000 -1,320 Descending FlightAware
08:42AM -23.7270 -46.6630 299° West 253 291 8,400 -900 Descending FlightAware
08:43AM -23.7100 -46.6940 301° West 245 282 8,100 -420 Descending FlightAware
08:43AM -23.6910 -46.7250 304° West 232 267 8,000 -120 Descending FlightAware
08:44AM -23.6630 -46.7520 319° Northwest 231 266 8,000  Level FlightAware
08:45AM -23.6260 -46.7900 317° Northwest 231 266 8,000 -180 Level FlightAware
08:45AM -23.5940 -46.8210 318° Northwest 230 265 7,800 -420 Descending FlightAware
08:46AM -23.5740 -46.8400 319° Northwest 224 258 7,600 -540 Descending FlightAware
08:46AM -23.5490 -46.8640 319° Northwest 221 254 7,300 -540 Descending FlightAware
08:47AM -23.5180 -46.8940 318° Northwest 221 254 7,000 -540 Descending FlightAware
08:47AM -23.4990 -46.9020 339° North 222 255 6,800 -1,140 Descending FlightAware
08:48AM -23.4670 -46.8660 46° Northeast 251 289 5,800 -960 Descending FlightAware
08:49AM -23.4720 -46.8210 97° East 231 266 5,500 -360 Descending FlightAware
08:49AM -23.4750 -46.7840 95° East 232 267 5,400 -120 Descending FlightAware
08:50AM -23.4840 -46.7570 110° East 219 252 5,400 -540 Level FlightAware
08:50AM -23.5170 -46.7320 145° Southeast 209 241 4,800 -960 Descending FlightAware
08:51AM -23.5440 -46.7140 149° Southeast 172 198 4,200 -840 Descending FlightAware
08:51AM -23.5650 -46.6990 147° Southeast 142 163 3,800 -780 Descending FlightAware
08:52AM -23.5810 -46.6880 148° Southeast 133 153 3,400 -720 Descending FlightAware
08:52AM -23.5970 -46.6770 148° Southeast 131 151 3,100 -600 Descending FlightAware
08:53AM -23.6130 -46.6660 148° Southeast 130 150 2,800 -720 Descending FlightAware
08:53AM -23.6100 -46.6680 329° Northwest 130 150 2,500 -420 Descending FlightAware
08:54AM -23.6210 -46.6600 146° Southeast 130 150 2,500  Level FlightAware